Rollins, MT (59931)

3:02 PM MST on February 08, 2016 (GMT -0700)
The Ranch | | Change Station
CLOSE
Current Station
Personal Weather Station
Location: Bigfork, MT
Elevation: 3455 ft
Nearby Weather Stations

Elev 3455 ft 48.05 °N, 114.06 °W | Updated 1 minute ago

Partly Cloudy
Partly Cloudy
44.2 °F
Feels Like 44 °F
N
0.0
Wind Variable Wind from SW

Today
High -- | Low -- °F
--% Chance of Precip.
Yesterday
High -- | Low -- °F
Precip. -- in
Pressure 30.65 in
Visibility 10.0 miles
Clouds Few 6000 ft
Windchill 44 °F
Dew Point 31 °F
Humidity 59%
Rainfall 0.00 in
Snow Depth Not available.
7:55 AM 5:47 PM
New Moon, 0% visible
METAR KMSO 082153Z 00000KT 10SM FEW060 04/M04 A3057 RMK AO2 SLP379 T00441044
Pressure 30.65 in
Visibility 10.0 miles
Clouds Few 6000 ft
Windchill 44 °F
Dew Point 31 °F
Humidity 59%
Rainfall 0.00 in
Snow Depth Not available.
7:55 AM 5:47 PM
New Moon, 0% visible
METAR KMSO 082153Z 00000KT 10SM FEW060 04/M04 A3057 RMK AO2 SLP379 T00441044

10-Day Weather Forecast

Almanac

Astronomy

Feb. 08, 2016 Rise Set
Actual Time
Civil Twilight
Nautical Twilight
Astronomical Twilight
Moon
Length of Visible Light
Length of Day
Tomorrow will be .
, % of the Moon is Illuminated

Today's Extremes

State Highs State Lows

Community

WunderPhotos

Upload Photos

1,891,511 photos uploaded!

WunderBlog® & News

Nearby

Air Quality

  Air Quality AQ Index Pollutant
Not available.

Snow Depth

Station Depth Elevation

Earthquake Activity

City Distance Mag. Time & Date
Minimum magnitude displayed is 2.5.

Coastal Water Temperatures

Place Temperature

Stations

Nearby Weather Stations

Station Location Temp. Windchill Dew Point Humidity Wind Precip. Elev Updated Type
                   

Watches & Warnings

There are currently no watches in effect.